Terminal Aerodrome Forecast
Issued by NWS Anchorage, AK

Home | Current Version | Previous Version | Text Only | Print | Product List | Glossary On
Versions: 1 2 3 4 5 6 7 8 9 10 11 12 13 14 15 16 17 18 19 20 21 22 23 24 25 26 27 28 29 30 31 32 33 34 35 36 37 38 39 40 41 42 43 44
000
FTAK31 PAFC 160522
TAFANC
TAF
PANC 160522Z 1606/1712 16008KT P6SM -RA OVC060
      TEMPO 1606/1609 35005KT
     FM160900 VRB03KT P6SM -SHRA BKN060
     FM170200 15012G20KT P6SM VCSH OVC070=

USA.gov is the U.S. government's official web portal to all federal, state and local government web resources and services.